sensor_id;sensor_type;location;lat;lon;timestamp;P1;durP1;ratioP1;P2;durP2;ratioP2
10232;SDS011;5161;48.174;11.756;2023-08-01T00:01:46;4.80;;;4.33;;
10232;SDS011;5161;48.174;11.756;2023-08-01T00:04:11;4.27;;;3.97;;
10232;SDS011;5161;48.174;11.756;2023-08-01T00:06:37;4.43;;;4.03;;
10232;SDS011;5161;48.174;11.756;2023-08-01T00:09:02;5.40;;;4.17;;
10232;SDS011;5161;48.174;11.756;2023-08-01T00:11:28;4.43;;;4.10;;
10232;SDS011;5161;48.174;11.756;2023-08-01T00:13:53;4.83;;;4.13;;
10232;SDS011;5161;48.174;11.756;2023-08-01T00:16:19;4.13;;;3.80;;
10232;SDS011;5161;48.174;11.756;2023-08-01T00:18:44;4.20;;;3.90;;
10232;SDS011;5161;48.174;11.756;2023-08-01T00:21:11;4.50;;;4.10;;
10232;SDS011;5161;48.174;11.756;2023-08-01T00:23:37;4.90;;;4.50;;
10232;SDS011;5161;48.174;11.756;2023-08-01T00:26:03;4.23;;;3.93;;
10232;SDS011;5161;48.174;11.756;2023-08-01T00:28:31;4.10;;;3.80;;
10232;SDS011;5161;48.174;11.756;2023-08-01T00:33:34;4.03;;;3.70;;
10232;SDS011;5161;48.174;11.756;2023-08-01T00:36:00;4.30;;;4.00;;
10232;SDS011;5161;48.174;11.756;2023-08-01T00:38:26;4.70;;;4.30;;
10232;SDS011;5161;48.174;11.756;2023-08-01T00:40:52;4.20;;;3.90;;
10232;SDS011;5161;48.174;11.756;2023-08-01T00:43:17;4.70;;;3.97;;
10232;SDS011;5161;48.174;11.756;2023-08-01T00:45:43;4.20;;;3.90;;
10232;SDS011;5161;48.174;11.756;2023-08-01T00:48:11;4.83;;;3.70;;
10232;SDS011;5161;48.174;11.756;2023-08-01T00:50:36;4.30;;;3.90;;
10232;SDS011;5161;48.174;11.756;2023-08-01T00:53:03;4.20;;;3.90;;
10232;SDS011;5161;48.174;11.756;2023-08-01T00:55:30;4.17;;;3.83;;
10232;SDS011;5161;48.174;11.756;2023-08-01T00:57:57;4.60;;;4.20;;
10232;SDS011;5161;48.174;11.756;2023-08-01T01:00:23;4.20;;;3.90;;
10232;SDS011;5161;48.174;11.756;2023-08-01T01:02:49;4.27;;;3.87;;
10232;SDS011;5161;48.174;11.756;2023-08-01T01:05:14;4.20;;;3.90;;
10232;SDS011;5161;48.174;11.756;2023-08-01T01:07:40;4.33;;;3.93;;
10232;SDS011;5161;48.174;11.756;2023-08-01T01:10:06;4.60;;;4.20;;
10232;SDS011;5161;48.174;11.756;2023-08-01T01:12:32;4.50;;;4.10;;
10232;SDS011;5161;48.174;11.756;2023-08-01T01:14:58;4.67;;;4.30;;
10232;SDS011;5161;48.174;11.756;2023-08-01T01:17:23;4.30;;;3.90;;
10232;SDS011;5161;48.174;11.756;2023-08-01T01:19:49;4.20;;;3.90;;
10232;SDS011;5161;48.174;11.756;2023-08-01T01:22:14;4.27;;;3.97;;
10232;SDS011;5161;48.174;11.756;2023-08-01T01:24:41;5.50;;;4.27;;
10232;SDS011;5161;48.174;11.756;2023-08-01T01:27:08;4.33;;;3.93;;
10232;SDS011;5161;48.174;11.756;2023-08-01T01:29:34;4.30;;;3.90;;
10232;SDS011;5161;48.174;11.756;2023-08-01T01:32:00;4.50;;;4.13;;
10232;SDS011;5161;48.174;11.756;2023-08-01T01:34:29;5.13;;;3.97;;
10232;SDS011;5161;48.174;11.756;2023-08-01T01:36:55;4.70;;;4.30;;
10232;SDS011;5161;48.174;11.756;2023-08-01T01:39:20;6.17;;;4.40;;
10232;SDS011;5161;48.174;11.756;2023-08-01T01:41:46;4.70;;;4.30;;
10232;SDS011;5161;48.174;11.756;2023-08-01T01:44:12;4.57;;;3.70;;
10232;SDS011;5161;48.174;11.756;2023-08-01T01:46:37;5.03;;;4.47;;
10232;SDS011;5161;48.174;11.756;2023-08-01T01:49:03;5.10;;;4.40;;
10232;SDS011;5161;48.174;11.756;2023-08-01T01:51:29;4.60;;;4.20;;
10232;SDS011;5161;48.174;11.756;2023-08-01T01:53:55;4.63;;;4.20;;
10232;SDS011;5161;48.174;11.756;2023-08-01T01:56:21;4.57;;;4.17;;
10232;SDS011;5161;48.174;11.756;2023-08-01T01:58:46;5.17;;;4.67;;
10232;SDS011;5161;48.174;11.756;2023-08-01T02:01:12;5.17;;;4.23;;
10232;SDS011;5161;48.174;11.756;2023-08-01T02:03:37;4.40;;;4.10;;
10232;SDS011;5161;48.174;11.756;2023-08-01T02:06:03;5.07;;;4.20;;
10232;SDS011;5161;48.174;11.756;2023-08-01T02:08:29;4.77;;;4.37;;
10232;SDS011;5161;48.174;11.756;2023-08-01T02:10:55;4.83;;;4.43;;
10232;SDS011;5161;48.174;11.756;2023-08-01T02:13:23;4.63;;;4.23;;
10232;SDS011;5161;48.174;11.756;2023-08-01T02:15:52;4.60;;;4.20;;
10232;SDS011;5161;48.174;11.756;2023-08-01T02:18:18;6.90;;;4.57;;
10232;SDS011;5161;48.174;11.756;2023-08-01T02:20:43;4.27;;;3.97;;
10232;SDS011;5161;48.174;11.756;2023-08-01T02:23:09;4.80;;;4.40;;
10232;SDS011;5161;48.174;11.756;2023-08-01T02:25:41;4.60;;;4.30;;
10232;SDS011;5161;48.174;11.756;2023-08-01T02:28:07;4.80;;;4.40;;
10232;SDS011;5161;48.174;11.756;2023-08-01T02:30:33;4.60;;;4.30;;
10232;SDS011;5161;48.174;11.756;2023-08-01T02:33:00;4.93;;;4.47;;
10232;SDS011;5161;48.174;11.756;2023-08-01T02:35:25;4.57;;;4.27;;
10232;SDS011;5161;48.174;11.756;2023-08-01T02:37:53;4.40;;;4.00;;
10232;SDS011;5161;48.174;11.756;2023-08-01T02:40:19;4.77;;;4.27;;
10232;SDS011;5161;48.174;11.756;2023-08-01T02:42:44;4.93;;;4.53;;
10232;SDS011;5161;48.174;11.756;2023-08-01T02:45:10;5.63;;;4.20;;
10232;SDS011;5161;48.174;11.756;2023-08-01T02:47:35;4.80;;;4.40;;
10232;SDS011;5161;48.174;11.756;2023-08-01T02:50:01;5.17;;;4.60;;
10232;SDS011;5161;48.174;11.756;2023-08-01T02:52:26;4.57;;;4.13;;
10232;SDS011;5161;48.174;11.756;2023-08-01T02:54:52;6.10;;;4.33;;
10232;SDS011;5161;48.174;11.756;2023-08-01T02:57:18;5.03;;;4.57;;
10232;SDS011;5161;48.174;11.756;2023-08-01T02:59:44;5.90;;;4.10;;
10232;SDS011;5161;48.174;11.756;2023-08-01T03:02:10;5.20;;;4.20;;
10232;SDS011;5161;48.174;11.756;2023-08-01T03:04:35;4.43;;;4.03;;
10232;SDS011;5161;48.174;11.756;2023-08-01T03:07:01;4.60;;;4.30;;
10232;SDS011;5161;48.174;11.756;2023-08-01T03:09:26;4.83;;;4.40;;
10232;SDS011;5161;48.174;11.756;2023-08-01T03:11:52;4.53;;;4.20;;
10232;SDS011;5161;48.174;11.756;2023-08-01T03:14:17;5.73;;;4.67;;
10232;SDS011;5161;48.174;11.756;2023-08-01T03:16:43;4.70;;;4.30;;
10232;SDS011;5161;48.174;11.756;2023-08-01T03:19:09;5.23;;;4.30;;
10232;SDS011;5161;48.174;11.756;2023-08-01T03:21:34;5.07;;;4.43;;
10232;SDS011;5161;48.174;11.756;2023-08-01T03:24:01;4.80;;;4.40;;
10232;SDS011;5161;48.174;11.756;2023-08-01T03:26:27;4.80;;;4.40;;
10232;SDS011;5161;48.174;11.756;2023-08-01T03:28:53;4.70;;;4.30;;
10232;SDS011;5161;48.174;11.756;2023-08-01T03:31:20;4.90;;;4.40;;
10232;SDS011;5161;48.174;11.756;2023-08-01T03:33:46;4.83;;;4.43;;
10232;SDS011;5161;48.174;11.756;2023-08-01T03:36:12;4.50;;;4.10;;
10232;SDS011;5161;48.174;11.756;2023-08-01T03:38:38;4.53;;;4.13;;
10232;SDS011;5161;48.174;11.756;2023-08-01T03:41:04;4.70;;;4.13;;
10232;SDS011;5161;48.174;11.756;2023-08-01T03:43:29;4.67;;;4.27;;
10232;SDS011;5161;48.174;11.756;2023-08-01T03:45:55;4.63;;;4.20;;
10232;SDS011;5161;48.174;11.756;2023-08-01T03:48:21;4.70;;;4.30;;
10232;SDS011;5161;48.174;11.756;2023-08-01T03:50:46;5.40;;;4.50;;
10232;SDS011;5161;48.174;11.756;2023-08-01T03:53:12;5.07;;;4.30;;
10232;SDS011;5161;48.174;11.756;2023-08-01T03:55:38;4.67;;;4.27;;
10232;SDS011;5161;48.174;11.756;2023-08-01T03:58:04;4.60;;;4.17;;
10232;SDS011;5161;48.174;11.756;2023-08-01T04:00:29;4.97;;;4.17;;
10232;SDS011;5161;48.174;11.756;2023-08-01T04:02:58;6.43;;;4.73;;
10232;SDS011;5161;48.174;11.756;2023-08-01T04:05:24;5.37;;;4.87;;
10232;SDS011;5161;48.174;11.756;2023-08-01T04:07:50;4.70;;;4.37;;
10232;SDS011;5161;48.174;11.756;2023-08-01T04:10:16;6.40;;;5.00;;
10232;SDS011;5161;48.174;11.756;2023-08-01T04:12:41;6.23;;;4.80;;
10232;SDS011;5161;48.174;11.756;2023-08-01T04:15:08;5.10;;;4.70;;
10232;SDS011;5161;48.174;11.756;2023-08-01T04:17:34;4.83;;;4.33;;
10232;SDS011;5161;48.174;11.756;2023-08-01T04:19:59;6.73;;;5.27;;
10232;SDS011;5161;48.174;11.756;2023-08-01T04:22:25;5.70;;;5.10;;
10232;SDS011;5161;48.174;11.756;2023-08-01T04:24:51;6.03;;;5.20;;
10232;SDS011;5161;48.174;11.756;2023-08-01T04:27:16;5.97;;;5.10;;
10232;SDS011;5161;48.174;11.756;2023-08-01T04:29:42;6.20;;;4.80;;
10232;SDS011;5161;48.174;11.756;2023-08-01T04:32:08;7.20;;;5.37;;
10232;SDS011;5161;48.174;11.756;2023-08-01T04:34:33;7.73;;;5.20;;
10232;SDS011;5161;48.174;11.756;2023-08-01T04:36:59;5.80;;;5.20;;
10232;SDS011;5161;48.174;11.756;2023-08-01T04:39:24;6.27;;;5.50;;
10232;SDS011;5161;48.174;11.756;2023-08-01T04:41:50;6.23;;;5.33;;
10232;SDS011;5161;48.174;11.756;2023-08-01T04:44:15;8.20;;;5.07;;
10232;SDS011;5161;48.174;11.756;2023-08-01T04:46:41;5.97;;;5.37;;
10232;SDS011;5161;48.174;11.756;2023-08-01T04:49:07;8.23;;;5.37;;
10232;SDS011;5161;48.174;11.756;2023-08-01T04:51:32;5.27;;;4.77;;
10232;SDS011;5161;48.174;11.756;2023-08-01T04:53:58;6.33;;;5.03;;
10232;SDS011;5161;48.174;11.756;2023-08-01T04:56:23;5.80;;;5.30;;
10232;SDS011;5161;48.174;11.756;2023-08-01T04:58:49;6.53;;;5.17;;
10232;SDS011;5161;48.174;11.756;2023-08-01T05:01:20;5.53;;;5.03;;
10232;SDS011;5161;48.174;11.756;2023-08-01T05:03:46;5.97;;;4.80;;
10232;SDS011;5161;48.174;11.756;2023-08-01T05:06:11;7.67;;;5.73;;
10232;SDS011;5161;48.174;11.756;2023-08-01T05:08:37;6.07;;;5.23;;
10232;SDS011;5161;48.174;11.756;2023-08-01T05:11:02;5.50;;;5.00;;
10232;SDS011;5161;48.174;11.756;2023-08-01T05:13:28;5.60;;;5.10;;
10232;SDS011;5161;48.174;11.756;2023-08-01T05:15:54;5.93;;;5.30;;
10232;SDS011;5161;48.174;11.756;2023-08-01T05:18:19;7.57;;;5.37;;
10232;SDS011;5161;48.174;11.756;2023-08-01T05:20:45;5.87;;;4.73;;
10232;SDS011;5161;48.174;11.756;2023-08-01T05:23:11;6.23;;;5.30;;
10232;SDS011;5161;48.174;11.756;2023-08-01T05:25:36;8.63;;;5.77;;
10232;SDS011;5161;48.174;11.756;2023-08-01T05:28:02;7.87;;;5.20;;
10232;SDS011;5161;48.174;11.756;2023-08-01T05:30:28;6.00;;;5.50;;
10232;SDS011;5161;48.174;11.756;2023-08-01T05:32:56;6.63;;;5.63;;
10232;SDS011;5161;48.174;11.756;2023-08-01T05:35:22;5.83;;;5.20;;
10232;SDS011;5161;48.174;11.756;2023-08-01T05:37:47;7.30;;;5.63;;
10232;SDS011;5161;48.174;11.756;2023-08-01T05:40:13;7.03;;;5.70;;
10232;SDS011;5161;48.174;11.756;2023-08-01T05:42:39;6.77;;;5.57;;
10232;SDS011;5161;48.174;11.756;2023-08-01T05:45:05;7.20;;;5.60;;
10232;SDS011;5161;48.174;11.756;2023-08-01T05:47:31;5.83;;;5.33;;
10232;SDS011;5161;48.174;11.756;2023-08-01T05:50:00;7.57;;;5.37;;
10232;SDS011;5161;48.174;11.756;2023-08-01T05:52:39;6.40;;;5.53;;
10232;SDS011;5161;48.174;11.756;2023-08-01T05:55:05;7.00;;;5.30;;
10232;SDS011;5161;48.174;11.756;2023-08-01T05:57:31;6.00;;;5.40;;
10232;SDS011;5161;48.174;11.756;2023-08-01T05:59:57;7.33;;;5.47;;
10232;SDS011;5161;48.174;11.756;2023-08-01T06:02:22;6.23;;;5.63;;
10232;SDS011;5161;48.174;11.756;2023-08-01T06:04:48;6.87;;;5.40;;
10232;SDS011;5161;48.174;11.756;2023-08-01T06:07:13;5.83;;;5.00;;
10232;SDS011;5161;48.174;11.756;2023-08-01T06:09:39;6.20;;;5.60;;
10232;SDS011;5161;48.174;11.756;2023-08-01T06:12:05;6.60;;;5.20;;
10232;SDS011;5161;48.174;11.756;2023-08-01T06:14:34;5.60;;;5.10;;
10232;SDS011;5161;48.174;11.756;2023-08-01T06:17:00;7.03;;;5.23;;
10232;SDS011;5161;48.174;11.756;2023-08-01T06:19:26;5.50;;;5.00;;
10232;SDS011;5161;48.174;11.756;2023-08-01T06:21:52;6.37;;;5.40;;
10232;SDS011;5161;48.174;11.756;2023-08-01T06:24:17;5.77;;;4.93;;
10232;SDS011;5161;48.174;11.756;2023-08-01T06:26:43;6.57;;;5.00;;
10232;SDS011;5161;48.174;11.756;2023-08-01T06:29:09;7.30;;;5.00;;
10232;SDS011;5161;48.174;11.756;2023-08-01T06:31:34;5.77;;;5.23;;
10232;SDS011;5161;48.174;11.756;2023-08-01T06:34:12;5.80;;;5.30;;
10232;SDS011;5161;48.174;11.756;2023-08-01T06:36:37;5.07;;;4.67;;
10232;SDS011;5161;48.174;11.756;2023-08-01T06:39:03;6.63;;;5.30;;
10232;SDS011;5161;48.174;11.756;2023-08-01T06:41:35;6.67;;;5.30;;
10232;SDS011;5161;48.174;11.756;2023-08-01T06:44:01;6.10;;;4.90;;
10232;SDS011;5161;48.174;11.756;2023-08-01T06:46:35;5.20;;;4.60;;
10232;SDS011;5161;48.174;11.756;2023-08-01T06:49:03;5.80;;;4.57;;
10232;SDS011;5161;48.174;11.756;2023-08-01T06:51:31;6.43;;;5.17;;
10232;SDS011;5161;48.174;11.756;2023-08-01T06:53:57;5.27;;;4.77;;
10232;SDS011;5161;48.174;11.756;2023-08-01T06:56:23;5.00;;;4.60;;
10232;SDS011;5161;48.174;11.756;2023-08-01T06:58:48;5.60;;;5.00;;
10232;SDS011;5161;48.174;11.756;2023-08-01T07:01:14;5.33;;;4.67;;
10232;SDS011;5161;48.174;11.756;2023-08-01T07:03:40;6.70;;;4.97;;
10232;SDS011;5161;48.174;11.756;2023-08-01T07:06:06;4.93;;;4.43;;
10232;SDS011;5161;48.174;11.756;2023-08-01T07:08:32;6.53;;;4.50;;
10232;SDS011;5161;48.174;11.756;2023-08-01T07:11:03;4.80;;;4.40;;
10232;SDS011;5161;48.174;11.756;2023-08-01T07:13:32;4.70;;;4.20;;
10232;SDS011;5161;48.174;11.756;2023-08-01T07:15:58;7.07;;;4.30;;
10232;SDS011;5161;48.174;11.756;2023-08-01T07:18:23;4.80;;;4.40;;
10232;SDS011;5161;48.174;11.756;2023-08-01T07:20:58;6.97;;;4.53;;
10232;SDS011;5161;48.174;11.756;2023-08-01T07:23:25;4.80;;;4.30;;
10232;SDS011;5161;48.174;11.756;2023-08-01T07:25:50;4.93;;;4.53;;
10232;SDS011;5161;48.174;11.756;2023-08-01T07:28:16;4.80;;;4.40;;
10232;SDS011;5161;48.174;11.756;2023-08-01T07:30:42;5.37;;;4.70;;
10232;SDS011;5161;48.174;11.756;2023-08-01T07:33:07;4.77;;;4.23;;
10232;SDS011;5161;48.174;11.756;2023-08-01T07:35:33;5.07;;;4.57;;
10232;SDS011;5161;48.174;11.756;2023-08-01T07:37:58;5.90;;;4.63;;
10232;SDS011;5161;48.174;11.756;2023-08-01T07:40:24;6.07;;;4.60;;
10232;SDS011;5161;48.174;11.756;2023-08-01T07:42:53;7.20;;;4.47;;
10232;SDS011;5161;48.174;11.756;2023-08-01T07:45:23;5.30;;;4.80;;
10232;SDS011;5161;48.174;11.756;2023-08-01T07:47:51;5.53;;;4.77;;
10232;SDS011;5161;48.174;11.756;2023-08-01T07:50:20;6.07;;;4.57;;
10232;SDS011;5161;48.174;11.756;2023-08-01T07:52:46;4.73;;;4.30;;
10232;SDS011;5161;48.174;11.756;2023-08-01T07:55:17;5.07;;;4.60;;
10232;SDS011;5161;48.174;11.756;2023-08-01T07:57:43;6.10;;;4.87;;
10232;SDS011;5161;48.174;11.756;2023-08-01T08:00:10;5.13;;;4.40;;
10232;SDS011;5161;48.174;11.756;2023-08-01T08:02:36;4.90;;;4.30;;
10232;SDS011;5161;48.174;11.756;2023-08-01T08:05:04;4.40;;;4.00;;
10232;SDS011;5161;48.174;11.756;2023-08-01T08:07:30;5.50;;;4.50;;
10232;SDS011;5161;48.174;11.756;2023-08-01T08:09:56;4.60;;;4.20;;
10232;SDS011;5161;48.174;11.756;2023-08-01T08:12:22;4.60;;;4.20;;
10232;SDS011;5161;48.174;11.756;2023-08-01T08:14:47;4.63;;;4.23;;
10232;SDS011;5161;48.174;11.756;2023-08-01T08:17:13;4.33;;;4.00;;
10232;SDS011;5161;48.174;11.756;2023-08-01T08:19:40;4.63;;;4.23;;
10232;SDS011;5161;48.174;11.756;2023-08-01T08:22:08;4.80;;;4.40;;
10232;SDS011;5161;48.174;11.756;2023-08-01T08:24:34;4.70;;;4.33;;
10232;SDS011;5161;48.174;11.756;2023-08-01T08:27:03;5.93;;;4.30;;
10232;SDS011;5161;48.174;11.756;2023-08-01T08:29:35;4.80;;;4.30;;
10232;SDS011;5161;48.174;11.756;2023-08-01T08:32:01;4.47;;;4.17;;
10232;SDS011;5161;48.174;11.756;2023-08-01T08:34:26;4.73;;;4.10;;
10232;SDS011;5161;48.174;11.756;2023-08-01T08:36:57;5.07;;;4.57;;
10232;SDS011;5161;48.174;11.756;2023-08-01T08:39:36;6.40;;;4.30;;
10232;SDS011;5161;48.174;11.756;2023-08-01T08:42:02;5.00;;;4.50;;
10232;SDS011;5161;48.174;11.756;2023-08-01T08:44:34;4.20;;;3.90;;
10232;SDS011;5161;48.174;11.756;2023-08-01T08:47:06;4.70;;;4.30;;
10232;SDS011;5161;48.174;11.756;2023-08-01T08:49:33;4.53;;;4.13;;
10232;SDS011;5161;48.174;11.756;2023-08-01T08:51:59;5.33;;;4.83;;
10232;SDS011;5161;48.174;11.756;2023-08-01T08:54:25;5.10;;;4.60;;
10232;SDS011;5161;48.174;11.756;2023-08-01T08:56:51;5.30;;;4.80;;
10232;SDS011;5161;48.174;11.756;2023-08-01T08:59:18;5.10;;;4.50;;
10232;SDS011;5161;48.174;11.756;2023-08-01T09:01:44;5.47;;;4.83;;
10232;SDS011;5161;48.174;11.756;2023-08-01T09:04:10;6.27;;;4.67;;
10232;SDS011;5161;48.174;11.756;2023-08-01T09:06:48;4.80;;;4.30;;
10232;SDS011;5161;48.174;11.756;2023-08-01T09:09:16;5.07;;;4.57;;
10232;SDS011;5161;48.174;11.756;2023-08-01T09:11:50;5.23;;;4.73;;
10232;SDS011;5161;48.174;11.756;2023-08-01T09:14:30;5.07;;;4.57;;
10232;SDS011;5161;48.174;11.756;2023-08-01T09:17:08;7.93;;;5.17;;
10232;SDS011;5161;48.174;11.756;2023-08-01T09:19:39;5.37;;;4.70;;
10232;SDS011;5161;48.174;11.756;2023-08-01T09:22:10;5.37;;;4.83;;
10232;SDS011;5161;48.174;11.756;2023-08-01T09:24:37;5.90;;;4.90;;
10232;SDS011;5161;48.174;11.756;2023-08-01T09:27:03;4.80;;;4.33;;
10232;SDS011;5161;48.174;11.756;2023-08-01T09:29:29;6.63;;;4.90;;
10232;SDS011;5161;48.174;11.756;2023-08-01T09:31:56;5.10;;;4.70;;
10232;SDS011;5161;48.174;11.756;2023-08-01T09:34:23;5.50;;;4.90;;
10232;SDS011;5161;48.174;11.756;2023-08-01T09:36:57;4.30;;;4.00;;
10232;SDS011;5161;48.174;11.756;2023-08-01T09:39:35;5.00;;;4.60;;
10232;SDS011;5161;48.174;11.756;2023-08-01T09:42:40;5.63;;;4.70;;
10232;SDS011;5161;48.174;11.756;2023-08-01T09:45:16;5.53;;;4.87;;
10232;SDS011;5161;48.174;11.756;2023-08-01T09:47:43;4.80;;;4.40;;
10232;SDS011;5161;48.174;11.756;2023-08-01T09:50:10;5.67;;;4.70;;
10232;SDS011;5161;48.174;11.756;2023-08-01T09:52:36;5.17;;;4.67;;
10232;SDS011;5161;48.174;11.756;2023-08-01T09:55:02;4.93;;;4.43;;
10232;SDS011;5161;48.174;11.756;2023-08-01T09:57:31;5.70;;;4.90;;
10232;SDS011;5161;48.174;11.756;2023-08-01T09:59:57;5.10;;;4.70;;
10232;SDS011;5161;48.174;11.756;2023-08-01T10:02:25;8.60;;;4.80;;
10232;SDS011;5161;48.174;11.756;2023-08-01T10:04:55;5.70;;;4.50;;
10232;SDS011;5161;48.174;11.756;2023-08-01T10:07:26;6.07;;;4.73;;
10232;SDS011;5161;48.174;11.756;2023-08-01T10:09:57;5.00;;;4.40;;
10232;SDS011;5161;48.174;11.756;2023-08-01T10:12:24;4.80;;;4.40;;
10232;SDS011;5161;48.174;11.756;2023-08-01T10:14:51;9.60;;;5.17;;
10232;SDS011;5161;48.174;11.756;2023-08-01T10:17:18;5.13;;;4.30;;
10232;SDS011;5161;48.174;11.756;2023-08-01T10:19:44;4.70;;;4.37;;
10232;SDS011;5161;48.174;11.756;2023-08-01T10:22:11;5.13;;;4.60;;
10232;SDS011;5161;48.174;11.756;2023-08-01T10:24:38;4.97;;;4.47;;
10232;SDS011;5161;48.174;11.756;2023-08-01T10:27:14;5.20;;;4.70;;
10232;SDS011;5161;48.174;11.756;2023-08-01T10:29:43;5.40;;;4.17;;
10232;SDS011;5161;48.174;11.756;2023-08-01T10:32:10;6.60;;;4.63;;
10232;SDS011;5161;48.174;11.756;2023-08-01T10:34:36;4.50;;;4.10;;
10232;SDS011;5161;48.174;11.756;2023-08-01T10:37:01;4.47;;;4.07;;
10232;SDS011;5161;48.174;11.756;2023-08-01T10:39:27;4.60;;;4.20;;
10232;SDS011;5161;48.174;11.756;2023-08-01T10:42:00;4.57;;;4.20;;
10232;SDS011;5161;48.174;11.756;2023-08-01T10:44:27;4.07;;;3.77;;
10232;SDS011;5161;48.174;11.756;2023-08-01T10:46:59;4.40;;;4.00;;
10232;SDS011;5161;48.174;11.756;2023-08-01T10:49:40;4.63;;;4.20;;
10232;SDS011;5161;48.174;11.756;2023-08-01T10:52:18;4.80;;;4.40;;
10232;SDS011;5161;48.174;11.756;2023-08-01T10:55:01;4.33;;;4.03;;
10232;SDS011;5161;48.174;11.756;2023-08-01T10:57:30;4.80;;;4.40;;
10232;SDS011;5161;48.174;11.756;2023-08-01T11:00:02;5.17;;;4.50;;
10232;SDS011;5161;48.174;11.756;2023-08-01T11:02:35;5.03;;;4.53;;
10232;SDS011;5161;48.174;11.756;2023-08-01T11:05:03;4.70;;;4.30;;
10232;SDS011;5161;48.174;11.756;2023-08-01T11:07:33;4.30;;;4.00;;
10232;SDS011;5161;48.174;11.756;2023-08-01T11:10:06;4.47;;;4.17;;
10232;SDS011;5161;48.174;11.756;2023-08-01T11:12:37;4.60;;;4.20;;
10232;SDS011;5161;48.174;11.756;2023-08-01T11:15:07;4.30;;;4.00;;
10232;SDS011;5161;48.174;11.756;2023-08-01T11:17:35;4.63;;;4.23;;
10232;SDS011;5161;48.174;11.756;2023-08-01T11:20:04;4.50;;;4.10;;
10232;SDS011;5161;48.174;11.756;2023-08-01T11:22:32;4.10;;;3.80;;
10232;SDS011;5161;48.174;11.756;2023-08-01T11:24:58;3.87;;;3.57;;
10232;SDS011;5161;48.174;11.756;2023-08-01T11:27:28;3.60;;;3.30;;
10232;SDS011;5161;48.174;11.756;2023-08-01T11:29:54;6.13;;;3.30;;
10232;SDS011;5161;48.174;11.756;2023-08-01T11:32:21;3.30;;;3.00;;
10232;SDS011;5161;48.174;11.756;2023-08-01T11:34:48;3.17;;;2.97;;
10232;SDS011;5161;48.174;11.756;2023-08-01T11:37:15;2.90;;;2.70;;
10232;SDS011;5161;48.174;11.756;2023-08-01T11:39:46;2.90;;;2.70;;
10232;SDS011;5161;48.174;11.756;2023-08-01T11:42:22;2.83;;;2.57;;
10232;SDS011;5161;48.174;11.756;2023-08-01T11:44:48;2.57;;;2.47;;
10232;SDS011;5161;48.174;11.756;2023-08-01T11:47:14;2.70;;;2.60;;
10232;SDS011;5161;48.174;11.756;2023-08-01T11:49:48;2.50;;;2.40;;
10232;SDS011;5161;48.174;11.756;2023-08-01T11:52:24;4.03;;;3.10;;
10232;SDS011;5161;48.174;11.756;2023-08-01T11:54:51;3.07;;;2.87;;
10232;SDS011;5161;48.174;11.756;2023-08-01T11:57:17;3.00;;;2.80;;
10232;SDS011;5161;48.174;11.756;2023-08-01T11:59:49;4.07;;;3.10;;
10232;SDS011;5161;48.174;11.756;2023-08-01T12:02:22;3.27;;;3.07;;
10232;SDS011;5161;48.174;11.756;2023-08-01T12:04:56;3.60;;;3.30;;
10232;SDS011;5161;48.174;11.756;2023-08-01T12:07:25;3.27;;;3.07;;
10232;SDS011;5161;48.174;11.756;2023-08-01T12:09:55;3.80;;;3.60;;
10232;SDS011;5161;48.174;11.756;2023-08-01T12:12:28;3.90;;;3.60;;
10232;SDS011;5161;48.174;11.756;2023-08-01T12:14:54;3.70;;;3.40;;
10232;SDS011;5161;48.174;11.756;2023-08-01T12:17:20;3.90;;;3.60;;
10232;SDS011;5161;48.174;11.756;2023-08-01T12:19:46;3.90;;;3.60;;
10232;SDS011;5161;48.174;11.756;2023-08-01T12:22:12;3.77;;;3.40;;
10232;SDS011;5161;48.174;11.756;2023-08-01T12:24:39;3.83;;;3.53;;
10232;SDS011;5161;48.174;11.756;2023-08-01T12:27:05;3.27;;;3.07;;
10232;SDS011;5161;48.174;11.756;2023-08-01T12:29:34;4.50;;;3.47;;
10232;SDS011;5161;48.174;11.756;2023-08-01T12:32:03;3.60;;;3.20;;
10232;SDS011;5161;48.174;11.756;2023-08-01T12:34:31;3.70;;;3.10;;
10232;SDS011;5161;48.174;11.756;2023-08-01T12:36:57;3.50;;;3.30;;
10232;SDS011;5161;48.174;11.756;2023-08-01T12:39:23;3.23;;;3.03;;
10232;SDS011;5161;48.174;11.756;2023-08-01T12:41:50;3.60;;;3.30;;
10232;SDS011;5161;48.174;11.756;2023-08-01T12:44:17;3.33;;;3.13;;
10232;SDS011;5161;48.174;11.756;2023-08-01T12:46:43;3.43;;;3.10;;
10232;SDS011;5161;48.174;11.756;2023-08-01T12:49:08;3.30;;;3.10;;
10232;SDS011;5161;48.174;11.756;2023-08-01T12:51:34;2.80;;;2.70;;
10232;SDS011;5161;48.174;11.756;2023-08-01T12:54:00;3.20;;;3.00;;
10232;SDS011;5161;48.174;11.756;2023-08-01T12:56:25;3.20;;;2.97;;
10232;SDS011;5161;48.174;11.756;2023-08-01T12:58:51;5.30;;;2.80;;
10232;SDS011;5161;48.174;11.756;2023-08-01T13:01:16;3.43;;;3.13;;
10232;SDS011;5161;48.174;11.756;2023-08-01T13:03:42;3.23;;;3.03;;
10232;SDS011;5161;48.174;11.756;2023-08-01T13:06:10;3.33;;;3.13;;
10232;SDS011;5161;48.174;11.756;2023-08-01T13:08:37;2.93;;;2.83;;
10232;SDS011;5161;48.174;11.756;2023-08-01T13:11:08;3.30;;;3.10;;
10232;SDS011;5161;48.174;11.756;2023-08-01T13:13:36;3.53;;;3.10;;
10232;SDS011;5161;48.174;11.756;2023-08-01T13:16:02;3.43;;;3.13;;
10232;SDS011;5161;48.174;11.756;2023-08-01T13:18:31;3.33;;;3.03;;
10232;SDS011;5161;48.174;11.756;2023-08-01T13:20:57;3.17;;;2.90;;
10232;SDS011;5161;48.174;11.756;2023-08-01T13:23:24;3.13;;;2.83;;
10232;SDS011;5161;48.174;11.756;2023-08-01T13:25:50;2.80;;;2.60;;
10232;SDS011;5161;48.174;11.756;2023-08-01T13:28:27;2.80;;;2.70;;
10232;SDS011;5161;48.174;11.756;2023-08-01T13:30:52;2.80;;;2.60;;
10232;SDS011;5161;48.174;11.756;2023-08-01T13:33:23;5.03;;;2.90;;
10232;SDS011;5161;48.174;11.756;2023-08-01T13:35:52;3.30;;;3.00;;
10232;SDS011;5161;48.174;11.756;2023-08-01T13:38:18;3.67;;;2.70;;
10232;SDS011;5161;48.174;11.756;2023-08-01T13:40:44;3.27;;;3.00;;
10232;SDS011;5161;48.174;11.756;2023-08-01T13:43:20;3.00;;;2.80;;
10232;SDS011;5161;48.174;11.756;2023-08-01T13:46:11;3.03;;;2.83;;
10232;SDS011;5161;48.174;11.756;2023-08-01T13:49:00;3.37;;;3.13;;
10232;SDS011;5161;48.174;11.756;2023-08-01T13:51:25;3.70;;;3.23;;
10232;SDS011;5161;48.174;11.756;2023-08-01T13:53:51;3.40;;;3.20;;
10232;SDS011;5161;48.174;11.756;2023-08-01T13:56:16;3.30;;;3.00;;
10232;SDS011;5161;48.174;11.756;2023-08-01T13:58:42;3.60;;;3.30;;
10232;SDS011;5161;48.174;11.756;2023-08-01T14:01:08;3.13;;;2.93;;
10232;SDS011;5161;48.174;11.756;2023-08-01T14:03:38;3.37;;;3.07;;
10232;SDS011;5161;48.174;11.756;2023-08-01T14:06:08;3.57;;;3.10;;
10232;SDS011;5161;48.174;11.756;2023-08-01T14:08:35;3.20;;;3.00;;
10232;SDS011;5161;48.174;11.756;2023-08-01T14:11:02;2.87;;;2.67;;
10232;SDS011;5161;48.174;11.756;2023-08-01T14:13:29;2.90;;;2.70;;
10232;SDS011;5161;48.174;11.756;2023-08-01T14:15:54;3.33;;;3.03;;
10232;SDS011;5161;48.174;11.756;2023-08-01T14:18:46;3.90;;;2.97;;
10232;SDS011;5161;48.174;11.756;2023-08-01T14:21:11;4.80;;;3.60;;
10232;SDS011;5161;48.174;11.756;2023-08-01T14:23:37;3.20;;;3.00;;
10232;SDS011;5161;48.174;11.756;2023-08-01T14:26:03;3.27;;;3.03;;
10232;SDS011;5161;48.174;11.756;2023-08-01T14:28:29;3.17;;;2.97;;
10232;SDS011;5161;48.174;11.756;2023-08-01T14:30:54;3.23;;;2.97;;
10232;SDS011;5161;48.174;11.756;2023-08-01T14:33:20;3.83;;;3.30;;
10232;SDS011;5161;48.174;11.756;2023-08-01T14:35:46;3.40;;;3.20;;
10232;SDS011;5161;48.174;11.756;2023-08-01T14:38:12;4.70;;;3.50;;
10232;SDS011;5161;48.174;11.756;2023-08-01T14:40:37;3.90;;;3.23;;
10232;SDS011;5161;48.174;11.756;2023-08-01T14:43:04;4.23;;;3.17;;
10232;SDS011;5161;48.174;11.756;2023-08-01T14:45:31;5.00;;;3.20;;
10232;SDS011;5161;48.174;11.756;2023-08-01T14:47:57;3.20;;;2.87;;
10232;SDS011;5161;48.174;11.756;2023-08-01T14:50:22;3.37;;;2.50;;
10232;SDS011;5161;48.174;11.756;2023-08-01T14:52:48;2.80;;;2.60;;